Kansas City, Missouri
Traffic Map
Current Weather Conditions
Kansas City, Missouri
Overcast Light Snow
Overcast
35°
Feels Like: 29°
Wind Chill: 29° Ceiling: 2800
Heat Index: 35° Visibility: 5mi
Dew Point: 32° Wind: 8mph
Humidity: 89% Direction: 100° (E)
Pressure: 29.91in Gusts: 0mph
Raw Report DataKMKC 010354Z 10007KT 5SM -SN BR SCT008 OVC028 02/00 A2991 RMK AO2 RAE29SNB29 SLP133 P0004 T00170000
Traffic Incident Summary
Active as of:
Severity:
Category:
InformationThere was an issue retrieving the traffic information for this location. Please try a different location or try again shortly.
Advertisements
Track Severe Weather on mobile